Time;durP1;ratioP1;P1;durP2;ratioP2;P2;SDS_P1;SDS_P2;PMS_P1;PMS_P2;Temp;Humidity;BMP_temperature;BMP_pressure;BME280_temperature;BME280_humidity;BME280_pressure;Samples;Min_cycle;Max_cycle;Signal;HPM_P1;HPM_P2
2023/03/29 00:01:11;;;;;;;0.98;0.98;;;3.50;99.10;;;;;;5113886;28;20223;-89
2023/03/29 00:04:01;;;;;;;3.33;1.55;;;3.50;99.70;;;;;;5113809;28;20192;-89
2023/03/29 00:06:31;;;;;;;1.20;1.13;;;3.40;99.70;;;;;;5113490;28;20187;-88
2023/03/29 00:09:04;;;;;;;3.25;1.48;;;3.40;99.00;;;;;;5113807;28;20207;-89
2023/03/29 00:11:33;;;;;;;3.22;1.90;;;3.50;99.60;;;;;;5114105;28;20319;-88
2023/03/29 00:14:01;;;;;;;2.03;1.45;;;3.50;99.80;;;;;;5114055;28;20206;-88
2023/03/29 00:16:32;;;;;;;5.35;1.38;;;3.40;99.40;;;;;;5113710;28;20206;-88
2023/03/29 00:19:02;;;;;;;2.13;1.42;;;3.40;99.80;;;;;;5113747;28;20207;-88
2023/03/29 00:21:30;;;;;;;2.08;1.88;;;3.40;99.90;;;;;;5114283;28;20227;-88
2023/03/29 00:23:59;;;;;;;1.83;1.65;;;3.40;99.90;;;;;;5114679;28;20212;-88
2023/03/29 00:26:27;;;;;;;1.20;1.10;;;3.40;99.80;;;;;;5121748;28;20206;-88
2023/03/29 00:28:56;;;;;;;0.90;0.90;;;3.40;99.70;;;;;;5116230;28;20255;-88
2023/03/29 00:31:24;;;;;;;1.67;1.38;;;3.40;99.70;;;;;;5113566;28;20219;-88
2023/03/29 00:33:53;;;;;;;3.33;1.42;;;3.40;99.90;;;;;;5113683;28;20242;-88
2023/03/29 00:36:23;;;;;;;1.38;1.27;;;3.40;99.90;;;;;;5113250;28;20231;-88
2023/03/29 00:38:52;;;;;;;3.00;1.42;;;3.40;99.90;;;;;;5113227;28;20207;-88
2023/03/29 00:41:20;;;;;;;3.15;1.42;;;3.40;99.90;;;;;;5113365;28;20258;-88
2023/03/29 00:43:57;;;;;;;2.03;1.55;;;3.40;99.90;;;;;;5113590;28;20207;-88
2023/03/29 00:46:29;;;;;;;1.50;1.40;;;3.30;99.90;;;;;;5111482;28;20204;-88
2023/03/29 00:49:02;;;;;;;1.40;1.30;;;3.30;99.90;;;;;;5110104;28;20196;-88
2023/03/29 00:51:36;;;;;;;1.60;1.50;;;3.20;99.90;;;;;;5113448;28;20226;-88
2023/03/29 00:54:07;;;;;;;1.17;1.13;;;3.10;99.90;;;;;;5113393;28;20267;-89
2023/03/29 00:56:38;;;;;;;4.10;1.40;;;3.10;99.90;;;;;;5113718;28;20214;-88
2023/03/29 00:59:12;;;;;;;1.55;1.40;;;3.10;99.90;;;;;;5113510;28;20260;-88
2023/03/29 01:01:46;;;;;;;1.60;1.50;;;3.10;99.90;;;;;;5113509;28;20224;-88
2023/03/29 01:04:19;;;;;;;2.28;1.60;;;3.10;99.90;;;;;;5113535;28;20195;-88
2023/03/29 01:06:53;;;;;;;3.25;1.85;;;3.10;99.90;;;;;;5112888;28;20207;-88
2023/03/29 01:09:24;;;;;;;2.22;1.55;;;3.00;99.90;;;;;;5112727;28;20211;-88
2023/03/29 01:11:56;;;;;;;2.65;1.90;;;3.00;99.90;;;;;;5113064;28;20227;-88
2023/03/29 01:14:34;;;;;;;1.70;1.52;;;3.00;99.90;;;;;;5113255;28;20211;-88
2023/03/29 01:17:03;;;;;;;2.90;1.77;;;2.90;99.90;;;;;;5115970;28;20235;-88
2023/03/29 01:19:37;;;;;;;4.80;1.42;;;2.90;99.90;;;;;;5117305;28;20260;-88
2023/03/29 01:22:16;;;;;;;2.42;1.75;;;2.90;99.90;;;;;;5116804;28;20238;-88
2023/03/29 01:25:00;;;;;;;2.10;1.90;;;2.80;99.90;;;;;;5116929;28;20207;-88
2023/03/29 01:27:54;;;;;;;2.45;1.90;;;2.80;99.90;;;;;;5115945;28;20203;-88
2023/03/29 01:30:28;;;;;;;1.95;1.55;;;2.80;99.90;;;;;;5117325;28;20231;-88
2023/03/29 01:33:00;;;;;;;2.05;1.80;;;2.80;99.90;;;;;;5116713;28;20276;-88
2023/03/29 01:35:34;;;;;;;3.45;1.98;;;2.80;99.90;;;;;;5117051;28;20208;-88
2023/03/29 01:38:09;;;;;;;3.10;2.10;;;2.80;99.90;;;;;;5116784;28;20202;-87
2023/03/29 01:40:38;;;;;;;3.20;2.28;;;2.80;99.90;;;;;;5117261;28;20258;-88
2023/03/29 01:43:17;;;;;;;6.03;1.88;;;2.80;99.90;;;;;;5116657;28;20272;-88
2023/03/29 01:45:49;;;;;;;3.05;1.85;;;2.80;99.90;;;;;;5117235;28;20203;-88
2023/03/29 01:48:24;;;;;;;5.05;1.55;;;2.70;99.90;;;;;;5098523;28;20200;-88
2023/03/29 01:50:55;;;;;;;3.90;1.92;;;2.60;99.90;;;;;;5096754;28;20287;-88
2023/03/29 01:53:28;;;;;;;2.50;1.80;;;2.70;99.90;;;;;;5096110;28;20216;-88
2023/03/29 01:56:03;;;;;;;1.58;1.48;;;2.60;99.90;;;;;;5096667;28;20216;-88
2023/03/29 01:58:37;;;;;;;1.98;1.77;;;2.60;99.90;;;;;;5095835;28;20225;-88
2023/03/29 02:01:09;;;;;;;1.90;1.77;;;2.60;99.90;;;;;;5096163;28;20227;-89
2023/03/29 02:03:42;;;;;;;2.40;1.50;;;2.60;99.90;;;;;;5095885;28;20201;-88
2023/03/29 02:06:12;;;;;;;1.75;1.65;;;2.60;99.90;;;;;;5096106;28;20226;-88
2023/03/29 02:08:41;;;;;;;2.17;1.40;;;2.50;99.90;;;;;;5095977;28;20216;-88
2023/03/29 02:11:10;;;;;;;3.05;1.52;;;2.50;99.90;;;;;;5095834;28;20254;-88
2023/03/29 02:13:40;;;;;;;2.72;1.75;;;2.50;99.90;;;;;;5095555;28;20220;-88
2023/03/29 02:16:11;;;;;;;3.90;1.90;;;2.40;99.90;;;;;;5095769;28;20200;-88
2023/03/29 02:18:41;;;;;;;1.48;1.38;;;2.40;99.90;;;;;;5095523;28;20215;-88
2023/03/29 02:21:17;;;;;;;1.60;1.25;;;2.30;99.90;;;;;;5096321;28;20220;-88
2023/03/29 02:23:47;;;;;;;2.15;1.77;;;2.30;99.90;;;;;;5096171;28;20235;-88
2023/03/29 02:26:17;;;;;;;2.40;2.20;;;2.30;99.90;;;;;;5094940;28;20200;-88
2023/03/29 02:28:47;;;;;;;2.50;1.88;;;2.30;99.90;;;;;;5093865;28;20232;-88
2023/03/29 02:31:20;;;;;;;2.70;1.77;;;2.30;99.90;;;;;;5095494;28;20220;-88
2023/03/29 02:33:58;;;;;;;2.70;1.83;;;2.30;99.90;;;;;;5095115;28;20220;-89
2023/03/29 02:36:30;;;;;;;8.10;1.75;;;2.20;99.90;;;;;;5095288;28;20192;-87
2023/03/29 02:39:03;;;;;;;2.10;1.80;;;2.20;99.90;;;;;;5094989;28;20299;-88
2023/03/29 02:41:32;;;;;;;2.72;2.22;;;2.10;99.90;;;;;;5095149;28;20319;-88
2023/03/29 02:44:04;;;;;;;1.80;1.70;;;2.10;99.90;;;;;;5095145;28;20200;-88
2023/03/29 02:46:33;;;;;;;1.23;1.17;;;2.10;99.90;;;;;;5098051;28;20249;-88
2023/03/29 02:49:03;;;;;;;3.22;1.60;;;2.10;99.90;;;;;;5097214;28;20273;-88
2023/03/29 02:51:34;;;;;;;1.88;1.65;;;2.10;99.90;;;;;;5095019;28;20216;-88
2023/03/29 02:54:07;;;;;;;2.20;1.80;;;2.10;99.90;;;;;;5094753;28;20209;-88
2023/03/29 02:56:43;;;;;;;2.08;1.88;;;2.10;99.90;;;;;;5094903;28;20231;-88
2023/03/29 02:59:15;;;;;;;3.58;1.67;;;2.00;99.90;;;;;;5095365;28;20197;-88
2023/03/29 03:01:43;;;;;;;3.20;1.55;;;2.00;99.90;;;;;;5094914;28;20278;-88
2023/03/29 03:04:12;;;;;;;2.63;1.70;;;1.90;99.90;;;;;;5095000;28;20260;-88
2023/03/29 03:06:41;;;;;;;3.50;1.65;;;2.00;99.90;;;;;;5094439;28;20200;-88
2023/03/29 03:09:10;;;;;;;2.20;1.50;;;2.00;99.90;;;;;;5094661;28;20261;-88
2023/03/29 03:11:39;;;;;;;1.67;1.58;;;2.00;99.90;;;;;;5094656;28;20246;-88
2023/03/29 03:14:07;;;;;;;2.85;1.83;;;2.00;99.90;;;;;;5094574;28;20258;-88
2023/03/29 03:16:37;;;;;;;2.10;1.45;;;2.00;99.90;;;;;;5094937;28;20216;-88
2023/03/29 03:19:06;;;;;;;1.40;1.30;;;2.00;99.90;;;;;;5094410;28;20212;-88
2023/03/29 03:21:36;;;;;;;2.25;1.92;;;2.00;99.90;;;;;;5094349;28;20277;-88
2023/03/29 03:24:06;;;;;;;1.60;1.25;;;2.10;99.90;;;;;;5094552;28;20235;-88
2023/03/29 03:26:37;;;;;;;1.60;1.50;;;2.10;99.90;;;;;;5093580;28;20211;-87
2023/03/29 03:29:06;;;;;;;3.58;1.60;;;2.20;99.90;;;;;;5094712;28;20200;-88
2023/03/29 03:31:36;;;;;;;2.70;1.42;;;2.20;99.90;;;;;;5094317;28;20223;-88
2023/03/29 03:34:07;;;;;;;2.22;1.52;;;2.20;99.90;;;;;;5094011;28;20248;-88
2023/03/29 03:36:35;;;;;;;3.35;1.98;;;2.20;99.90;;;;;;5094325;28;20254;-88
2023/03/29 03:39:06;;;;;;;2.90;1.30;;;2.20;99.90;;;;;;5093304;28;20204;-88
2023/03/29 03:41:36;;;;;;;4.15;2.00;;;2.20;99.90;;;;;;5094476;28;20230;-81
2023/03/29 03:44:05;;;;;;;2.25;1.60;;;2.20;99.90;;;;;;5094524;28;20291;-81
2023/03/29 03:46:33;;;;;;;1.60;1.45;;;2.20;99.90;;;;;;5097215;28;20315;-81
2023/03/29 03:49:03;;;;;;;1.88;1.75;;;2.10;99.90;;;;;;5095887;28;20193;-81
2023/03/29 03:51:33;;;;;;;15.85;2.13;;;2.10;99.90;;;;;;5093905;28;20232;-81
2023/03/29 03:54:01;;;;;;;3.63;1.88;;;2.10;99.90;;;;;;5093982;28;20311;-81
2023/03/29 03:56:29;;;;;;;4.32;2.10;;;2.10;99.90;;;;;;5093925;28;20258;-88
2023/03/29 03:58:58;;;;;;;5.45;1.50;;;2.10;99.90;;;;;;5093542;28;20216;-88
2023/03/29 04:01:28;;;;;;;3.20;1.88;;;2.10;99.90;;;;;;5093812;28;20224;-89
2023/03/29 04:03:57;;;;;;;1.92;1.55;;;2.10;99.90;;;;;;5093617;28;20203;-89
2023/03/29 04:06:29;;;;;;;1.88;1.77;;;2.10;99.90;;;;;;5094030;28;20212;-88
2023/03/29 04:09:02;;;;;;;2.30;1.77;;;2.10;99.90;;;;;;5093102;28;20242;-81
2023/03/29 04:11:33;;;;;;;2.22;1.90;;;2.10;99.90;;;;;;5093733;28;20224;-89
2023/03/29 04:14:03;;;;;;;1.42;1.27;;;2.10;99.90;;;;;;5093208;28;20223;-88
2023/03/29 04:16:32;;;;;;;1.73;1.63;;;2.00;99.90;;;;;;5093613;28;20211;-88
2023/03/29 04:19:00;;;;;;;2.15;1.60;;;2.00;99.90;;;;;;5093086;28;20203;-88
2023/03/29 04:21:29;;;;;;;7.25;2.22;;;2.00;99.90;;;;;;5093750;28;20307;-89
2023/03/29 04:23:59;;;;;;;1.30;1.20;;;2.00;99.90;;;;;;5093864;28;20268;-93
2023/03/29 04:26:30;;;;;;;2.53;1.75;;;2.00;99.90;;;;;;5093067;28;20249;-83
2023/03/29 04:28:58;;;;;;;2.83;1.85;;;2.00;99.90;;;;;;5093279;28;20303;-83
2023/03/29 04:31:30;;;;;;;1.67;1.58;;;2.00;99.90;;;;;;5093728;28;20251;-83
2023/03/29 04:33:59;;;;;;;3.65;2.25;;;2.00;99.90;;;;;;5092944;28;20220;-83
2023/03/29 04:36:27;;;;;;;1.50;1.40;;;2.00;99.90;;;;;;5093747;28;20230;-83
2023/03/29 04:38:57;;;;;;;5.80;2.30;;;2.00;99.90;;;;;;5093202;28;20208;-83
2023/03/29 04:41:28;;;;;;;6.55;1.90;;;2.00;99.90;;;;;;5092827;28;20288;-83
2023/03/29 04:43:58;;;;;;;2.45;1.50;;;2.00;99.90;;;;;;5093385;28;20220;-83
2023/03/29 04:46:27;;;;;;;2.40;2.10;;;2.00;99.90;;;;;;5095224;28;20283;-83
2023/03/29 04:48:56;;;;;;;3.22;2.03;;;2.00;99.90;;;;;;5099473;28;20200;-82
2023/03/29 04:51:24;;;;;;;2.17;1.98;;;2.00;99.90;;;;;;5111870;28;20224;-82
2023/03/29 04:53:53;;;;;;;3.10;2.13;;;2.00;99.90;;;;;;5117467;28;20219;-82
2023/03/29 04:56:21;;;;;;;4.03;2.45;;;2.00;99.90;;;;;;5114026;28;20196;-83
2023/03/29 04:58:57;;;;;;;2.35;1.60;;;2.10;99.90;;;;;;5116593;28;20199;-82
2023/03/29 05:01:26;;;;;;;4.57;2.50;;;2.10;99.90;;;;;;5116426;28;20227;-84
2023/03/29 05:03:55;;;;;;;2.95;2.30;;;2.20;99.90;;;;;;5111419;28;20203;-82
2023/03/29 05:06:23;;;;;;;4.88;2.50;;;2.20;99.90;;;;;;5096787;28;20196;-82
2023/03/29 05:08:52;;;;;;;2.30;2.03;;;2.30;99.90;;;;;;5096749;28;20224;-82
2023/03/29 05:11:23;;;;;;;3.10;2.17;;;2.30;99.90;;;;;;5096773;28;20232;-84
2023/03/29 05:13:54;;;;;;;3.25;2.00;;;2.30;99.90;;;;;;5096690;28;20220;-83
2023/03/29 05:16:25;;;;;;;1.90;1.65;;;2.20;99.90;;;;;;5097242;28;20231;-87
2023/03/29 05:18:54;;;;;;;2.63;2.38;;;2.20;99.90;;;;;;5096656;28;20204;-85
2023/03/29 05:21:22;;;;;;;1.73;1.63;;;2.10;99.90;;;;;;5113950;28;20272;-88
2023/03/29 05:23:51;;;;;;;5.05;2.38;;;2.10;99.90;;;;;;5114263;28;20184;-84
2023/03/29 05:26:21;;;;;;;5.53;2.45;;;2.00;99.90;;;;;;5117036;28;20208;-81
2023/03/29 05:28:49;;;;;;;4.45;2.30;;;2.10;99.90;;;;;;5115745;28;20272;-81
2023/03/29 05:31:18;;;;;;;2.70;1.95;;;2.00;99.90;;;;;;5114377;28;20258;-81
2023/03/29 05:33:49;;;;;;;5.90;1.63;;;2.10;99.90;;;;;;5116468;28;20219;-81
2023/03/29 05:36:19;;;;;;;3.45;1.90;;;2.10;99.90;;;;;;5115711;28;20267;-81
2023/03/29 05:38:48;;;;;;;11.18;1.88;;;2.10;99.90;;;;;;5115600;28;20208;-81
2023/03/29 05:41:17;;;;;;;2.15;1.90;;;2.10;99.90;;;;;;5114963;28;20232;-81
2023/03/29 05:43:46;;;;;;;2.15;1.70;;;2.10;99.90;;;;;;5115999;28;20249;-81
2023/03/29 05:46:14;;;;;;;8.80;1.80;;;2.20;99.90;;;;;;5116239;28;20207;-81
2023/03/29 05:48:43;;;;;;;2.40;1.83;;;2.30;99.90;;;;;;5110031;28;20207;-81
2023/03/29 05:51:13;;;;;;;1.95;1.60;;;2.30;99.90;;;;;;5116813;28;20235;-81
2023/03/29 05:53:42;;;;;;;1.50;1.40;;;2.40;99.90;;;;;;5118256;28;20200;-81
2023/03/29 05:56:10;;;;;;;2.60;1.92;;;2.40;99.90;;;;;;5116279;28;20271;-81
2023/03/29 05:58:39;;;;;;;2.45;1.88;;;2.50;99.90;;;;;;5114769;28;20192;-80
2023/03/29 06:01:11;;;;;;;3.40;2.83;;;2.50;99.90;;;;;;5115343;28;20227;-80
2023/03/29 06:03:39;;;;;;;11.40;3.15;;;2.70;99.90;;;;;;5112643;28;20200;-81
2023/03/29 06:06:09;;;;;;;3.97;2.72;;;2.80;99.90;;;;;;5102853;28;20197;-80
2023/03/29 06:08:39;;;;;;;2.63;1.95;;;2.80;99.90;;;;;;5094580;28;20213;-80
2023/03/29 06:11:09;;;;;;;2.63;2.03;;;2.80;99.90;;;;;;5113961;28;20246;-80
2023/03/29 06:13:38;;;;;;;2.47;2.28;;;2.70;99.90;;;;;;5115806;28;20199;-80
2023/03/29 06:16:08;;;;;;;6.30;2.25;;;2.70;99.90;;;;;;5114608;28;20239;-80
2023/03/29 06:18:36;;;;;;;2.47;1.85;;;2.60;99.90;;;;;;5114277;28;20195;-80
2023/03/29 06:21:06;;;;;;;12.85;1.77;;;2.60;99.90;;;;;;5115183;28;20238;-80
2023/03/29 06:23:35;;;;;;;2.58;2.38;;;2.60;99.90;;;;;;5115443;28;20261;-80
2023/03/29 06:26:06;;;;;;;2.85;2.33;;;2.60;99.90;;;;;;5115574;28;20240;-80
2023/03/29 06:28:34;;;;;;;3.95;2.45;;;2.70;99.90;;;;;;5114837;28;20231;-80
2023/03/29 06:31:04;;;;;;;6.03;2.42;;;2.80;99.90;;;;;;5115276;28;20254;-80
2023/03/29 06:33:33;;;;;;;3.90;2.22;;;2.90;99.90;;;;;;5115058;28;20219;-80
2023/03/29 06:36:01;;;;;;;2.13;1.90;;;3.00;99.90;;;;;;5114505;28;20262;-80
2023/03/29 06:38:29;;;;;;;1.50;1.40;;;3.00;99.90;;;;;;5114555;28;20208;-80
2023/03/29 06:41:02;;;;;;;2.28;1.98;;;3.10;99.90;;;;;;5114704;28;20241;-80
2023/03/29 06:43:33;;;;;;;1.83;1.73;;;3.20;99.90;;;;;;5114396;28;20267;-80
2023/03/29 06:46:02;;;;;;;5.00;2.30;;;3.30;99.90;;;;;;5114675;28;20208;-80
2023/03/29 06:48:31;;;;;;;2.92;2.20;;;3.40;99.90;;;;;;5108668;28;20252;-80
2023/03/29 06:50:59;;;;;;;2.00;1.80;;;3.50;99.90;;;;;;5114017;28;20219;-80
2023/03/29 06:53:29;;;;;;;4.50;2.40;;;3.60;99.90;;;;;;5107208;28;20253;-82
2023/03/29 06:55:58;;;;;;;3.75;2.70;;;3.60;99.90;;;;;;5094325;28;20221;-82
2023/03/29 06:58:27;;;;;;;4.30;2.70;;;3.70;99.90;;;;;;5093669;28;20249;-82
2023/03/29 07:01:02;;;;;;;7.47;2.75;;;3.90;99.90;;;;;;5094088;28;20273;-82
2023/03/29 07:03:34;;;;;;;1.67;1.50;;;4.00;99.90;;;;;;5105802;28;20211;-82
2023/03/29 07:06:08;;;;;;;2.72;2.28;;;4.10;99.90;;;;;;5113965;28;20224;-82
2023/03/29 07:08:42;;;;;;;3.17;2.03;;;4.10;99.90;;;;;;5108811;28;20234;-83
2023/03/29 07:11:12;;;;;;;4.35;2.50;;;4.30;99.90;;;;;;5114373;28;20224;-85
2023/03/29 07:13:41;;;;;;;2.10;1.92;;;4.40;99.90;;;;;;5099447;28;20196;-82
2023/03/29 07:16:12;;;;;;;2.33;1.90;;;4.50;99.90;;;;;;5092840;28;20285;-83
2023/03/29 07:18:42;;;;;;;2.50;2.28;;;4.60;99.90;;;;;;5093591;28;20259;-83
2023/03/29 07:21:12;;;;;;;2.15;1.83;;;4.60;99.90;;;;;;5093648;28;20232;-83
2023/03/29 07:23:41;;;;;;;1.92;1.73;;;4.70;99.90;;;;;;5093719;28;20212;-83
2023/03/29 07:26:10;;;;;;;4.75;2.05;;;4.70;99.90;;;;;;5093446;28;20249;-82
2023/03/29 07:28:39;;;;;;;2.38;2.10;;;4.70;99.90;;;;;;5093174;28;20196;-82
2023/03/29 07:31:10;;;;;;;2.60;2.00;;;4.80;99.90;;;;;;5092495;28;20319;-82
2023/03/29 07:33:45;;;;;;;7.18;2.28;;;4.90;99.90;;;;;;5093776;28;20260;-82
2023/03/29 07:36:14;;;;;;;2.97;1.83;;;5.00;99.90;;;;;;5092852;28;20246;-82
2023/03/29 07:38:42;;;;;;;1.60;1.50;;;5.10;99.90;;;;;;5093135;28;20234;-82
2023/03/29 07:41:11;;;;;;;2.03;1.60;;;5.30;99.90;;;;;;5093355;28;20228;-82
2023/03/29 07:43:40;;;;;;;1.88;1.63;;;5.40;99.90;;;;;;5093327;28;20236;-82
2023/03/29 07:46:09;;;;;;;6.60;2.03;;;5.50;99.90;;;;;;5093696;28;20212;-82
2023/03/29 07:48:38;;;;;;;1.48;1.38;;;5.50;99.90;;;;;;5107230;28;20310;-82
2023/03/29 07:51:08;;;;;;;2.10;1.55;;;5.60;99.90;;;;;;5113570;28;20228;-82
2023/03/29 07:53:37;;;;;;;1.58;1.48;;;5.60;99.70;;;;;;5113577;28;20223;-78
2023/03/29 07:56:06;;;;;;;3.83;2.17;;;5.70;99.80;;;;;;5113174;28;20248;-79
2023/03/29 07:58:36;;;;;;;2.63;2.17;;;5.80;99.90;;;;;;5113217;28;20204;-79
2023/03/29 08:01:07;;;;;;;2.38;1.73;;;5.90;99.20;;;;;;5113671;28;20220;-79
2023/03/29 08:03:36;;;;;;;2.03;1.90;;;6.00;98.70;;;;;;5113665;28;20215;-79
2023/03/29 08:06:05;;;;;;;3.10;2.10;;;6.00;98.40;;;;;;5113029;28;20250;-79
2023/03/29 08:08:35;;;;;;;4.50;1.98;;;6.10;98.10;;;;;;5112808;28;20208;-79
2023/03/29 08:11:06;;;;;;;1.63;1.52;;;6.10;97.90;;;;;;5113234;28;20237;-79
2023/03/29 08:13:34;;;;;;;6.32;1.95;;;6.10;97.70;;;;;;5113548;28;20207;-79
2023/03/29 08:16:03;;;;;;;2.15;1.48;;;6.10;97.90;;;;;;5113297;28;20227;-79
2023/03/29 08:18:31;;;;;;;2.35;1.75;;;6.20;97.20;;;;;;5112635;28;20207;-79
2023/03/29 08:21:02;;;;;;;3.05;1.67;;;6.20;97.10;;;;;;5113265;28;20296;-79
2023/03/29 08:23:31;;;;;;;1.73;1.60;;;6.30;96.90;;;;;;5112837;28;20203;-79
2023/03/29 08:26:01;;;;;;;1.70;1.50;;;6.50;96.30;;;;;;5112328;28;20224;-79
2023/03/29 08:28:29;;;;;;;3.78;2.08;;;6.60;95.80;;;;;;5112634;28;20256;-79
2023/03/29 08:30:57;;;;;;;2.05;1.88;;;6.50;95.20;;;;;;5112079;28;20230;-79
2023/03/29 08:33:26;;;;;;;1.88;1.77;;;6.60;95.50;;;;;;5112808;28;20204;-79
2023/03/29 08:35:55;;;;;;;1.33;1.25;;;6.70;95.70;;;;;;5112962;28;20223;-79
2023/03/29 08:38:23;;;;;;;1.98;1.77;;;6.80;95.50;;;;;;5112660;28;20230;-79
2023/03/29 08:40:52;;;;;;;2.70;2.05;;;7.00;95.70;;;;;;5112870;28;20228;-78
2023/03/29 08:43:57;;;;;;;2.22;1.70;;;7.10;95.30;;;;;;5112790;28;20257;-78
2023/03/29 08:46:35;;;;;;;1.60;1.50;;;7.30;94.40;;;;;;5112842;28;20199;-79
2023/03/29 08:49:06;;;;;;;4.13;2.05;;;7.30;94.60;;;;;;5093995;28;20203;-78
2023/03/29 08:51:38;;;;;;;2.65;1.60;;;7.40;94.60;;;;;;5092494;28;20273;-78
2023/03/29 08:54:11;;;;;;;23.25;2.60;;;7.40;94.90;;;;;;5092633;28;20220;-78
2023/03/29 08:56:43;;;;;;;1.92;1.80;;;7.40;94.60;;;;;;5092154;28;20231;-78
2023/03/29 08:59:22;;;;;;;2.00;1.63;;;7.50;93.90;;;;;;5092552;28;20215;-78
2023/03/29 09:01:56;;;;;;;2.70;2.25;;;7.60;93.60;;;;;;5092534;28;20220;-78
2023/03/29 09:04:28;;;;;;;2.58;2.05;;;7.70;94.10;;;;;;5092258;28;20287;-78
2023/03/29 09:06:57;;;;;;;1.70;1.60;;;7.90;93.50;;;;;;5092160;28;20279;-78
2023/03/29 09:09:29;;;;;;;1.95;1.75;;;7.90;93.40;;;;;;5092252;28;20265;-79
2023/03/29 09:12:11;;;;;;;2.53;1.58;;;7.90;94.00;;;;;;5092592;28;20307;-78
2023/03/29 09:14:56;;;;;;;5.40;2.35;;;7.90;93.70;;;;;;5092088;28;20249;-78
2023/03/29 09:17:35;;;;;;;2.60;2.40;;;7.90;93.40;;;;;;5091856;28;20220;-78
2023/03/29 09:20:18;;;;;;;4.22;2.38;;;7.80;93.20;;;;;;5092268;28;20266;-78
2023/03/29 09:22:56;;;;;;;2.75;2.13;;;7.70;93.10;;;;;;5092378;28;20212;-79
2023/03/29 09:25:28;;;;;;;2.90;1.83;;;7.70;93.10;;;;;;5091989;28;20208;-79
2023/03/29 09:28:02;;;;;;;1.77;1.67;;;7.80;93.00;;;;;;5091446;28;20207;-79
2023/03/29 09:30:38;;;;;;;3.17;2.03;;;7.80;93.10;;;;;;5090839;28;20273;-79
2023/03/29 09:33:12;;;;;;;2.92;1.67;;;7.70;92.80;;;;;;5092362;28;20208;-79
2023/03/29 09:35:44;;;;;;;2.00;1.88;;;7.70;92.60;;;;;;5092224;28;20211;-79
2023/03/29 09:38:14;;;;;;;1.40;1.30;;;7.70;92.70;;;;;;5094353;28;20216;-79
2023/03/29 09:40:47;;;;;;;12.98;2.33;;;7.70;92.70;;;;;;5095847;28;20307;-79
2023/03/29 09:43:19;;;;;;;2.65;1.73;;;7.80;92.80;;;;;;5095693;28;20212;-80
2023/03/29 09:45:52;;;;;;;2.28;1.77;;;7.80;92.70;;;;;;5095694;28;20207;-79
2023/03/29 09:48:21;;;;;;;1.73;1.60;;;7.90;92.60;;;;;;5101116;28;20254;-79
2023/03/29 09:50:51;;;;;;;2.33;1.80;;;8.00;92.90;;;;;;5095334;28;20231;-79
2023/03/29 09:53:21;;;;;;;24.92;1.98;;;8.10;92.20;;;;;;5095748;28;20234;-79
2023/03/29 09:55:50;;;;;;;4.25;2.60;;;8.00;92.50;;;;;;5095260;28;20230;-79
2023/03/29 09:58:23;;;;;;;3.40;2.20;;;7.90;92.90;;;;;;5094878;28;20216;-79
2023/03/29 10:00:54;;;;;;;2.28;2.08;;;7.80;92.70;;;;;;5095931;28;20220;-79
2023/03/29 10:03:25;;;;;;;2.65;1.90;;;7.90;92.70;;;;;;5095617;28;20272;-78
2023/03/29 10:05:58;;;;;;;3.85;2.72;;;8.00;92.90;;;;;;5095712;28;20208;-79
2023/03/29 10:08:31;;;;;;;2.70;1.83;;;8.00;92.90;;;;;;5094664;28;20277;-78
2023/03/29 10:11:03;;;;;;;3.15;2.15;;;8.10;92.90;;;;;;5095036;28;20311;-80
2023/03/29 10:13:35;;;;;;;2.72;2.38;;;8.10;93.30;;;;;;5095146;28;20211;-78
2023/03/29 10:16:07;;;;;;;2.58;2.10;;;8.20;93.00;;;;;;5095186;28;20211;-80
2023/03/29 10:18:41;;;;;;;2.10;1.85;;;8.30;93.30;;;;;;5094744;28;20211;-80
2023/03/29 10:21:17;;;;;;;3.92;2.30;;;8.30;92.80;;;;;;5095040;28;20224;-80
2023/03/29 10:23:46;;;;;;;2.85;1.85;;;8.30;92.80;;;;;;5094983;28;20203;-80
2023/03/29 10:26:24;;;;;;;2.05;1.85;;;8.30;93.40;;;;;;5094972;28;20212;-80
2023/03/29 10:28:56;;;;;;;2.28;2.08;;;8.30;93.20;;;;;;5094665;28;20281;-80
2023/03/29 10:31:28;;;;;;;2.08;1.90;;;8.40;93.20;;;;;;5093738;28;20342;-80
2023/03/29 10:33:58;;;;;;;2.78;1.70;;;8.40;93.00;;;;;;5094972;28;20204;-80
2023/03/29 10:36:27;;;;;;;4.18;2.38;;;8.30;92.30;;;;;;5094415;28;20276;-80
2023/03/29 10:38:59;;;;;;;1.90;1.80;;;8.30;92.40;;;;;;5093945;28;20239;-80
2023/03/29 10:41:35;;;;;;;2.17;1.83;;;8.30;93.10;;;;;;5094706;28;20223;-80
2023/03/29 10:44:04;;;;;;;3.72;1.77;;;8.30;92.80;;;;;;5094603;28;20238;-80
2023/03/29 10:46:43;;;;;;;1.63;1.50;;;8.40;92.60;;;;;;5097166;28;20246;-80
2023/03/29 10:49:19;;;;;;;3.83;2.15;;;8.40;93.00;;;;;;5114105;28;20196;-80
2023/03/29 10:51:49;;;;;;;2.20;1.90;;;8.30;93.00;;;;;;5114816;28;20260;-80
2023/03/29 10:54:21;;;;;;;1.70;1.60;;;8.30;93.10;;;;;;5114861;28;20230;-80
2023/03/29 10:56:55;;;;;;;1.88;1.77;;;8.30;93.10;;;;;;5114038;28;20220;-80
2023/03/29 10:59:29;;;;;;;2.20;2.00;;;8.30;93.30;;;;;;5114763;28;20253;-80
2023/03/29 11:02:39;;;;;;;2.75;1.67;;;8.40;93.40;;;;;;5114757;28;20238;-80
2023/03/29 11:05:23;;;;;;;2.90;1.95;;;8.40;92.90;;;;;;5114688;28;20203;-80
2023/03/29 11:08:16;;;;;;;1.88;1.67;;;8.50;93.30;;;;;;5114377;28;20222;-80
2023/03/29 11:10:55;;;;;;;1.70;1.55;;;8.50;93.10;;;;;;5112040;28;20258;-80
2023/03/29 11:13:37;;;;;;;1.50;1.40;;;8.60;92.50;;;;;;5114460;28;20202;-80
2023/03/29 11:16:29;;;;;;;2.42;1.88;;;8.60;93.00;;;;;;5114564;28;20246;-80
2023/03/29 11:19:16;;;;;;;1.88;1.75;;;8.50;93.00;;;;;;5113981;28;20200;-79
2023/03/29 11:21:54;;;;;;;1.45;1.35;;;8.50;93.50;;;;;;5114199;28;20232;-80
2023/03/29 11:24:35;;;;;;;1.50;1.40;;;8.50;93.60;;;;;;5114428;28;20241;-80
2023/03/29 11:27:19;;;;;;;1.50;1.40;;;8.40;93.90;;;;;;5114018;28;20207;-80
2023/03/29 11:29:59;;;;;;;2.53;2.08;;;8.40;93.90;;;;;;5112730;28;20274;-80
2023/03/29 11:32:34;;;;;;;2.60;1.90;;;8.50;95.10;;;;;;5114044;28;20203;-80
2023/03/29 11:35:16;;;;;;;3.40;2.28;;;8.50;95.30;;;;;;5114366;28;20199;-80
2023/03/29 11:37:54;;;;;;;2.45;2.00;;;8.60;96.00;;;;;;5112789;28;20223;-80
2023/03/29 11:40:38;;;;;;;3.15;1.45;;;8.80;97.80;;;;;;5113682;28;20220;-80
2023/03/29 11:43:14;;;;;;;2.90;1.63;;;8.90;96.20;;;;;;5113976;28;20204;-80
2023/03/29 11:45:46;;;;;;;3.45;1.80;;;9.00;96.40;;;;;;5113710;28;20253;-80
2023/03/29 11:48:21;;;;;;;1.85;1.58;;;8.90;96.80;;;;;;5101826;28;20201;-80
2023/03/29 11:50:55;;;;;;;1.67;1.30;;;8.80;98.40;;;;;;5093414;28;20220;-80
2023/03/29 11:53:30;;;;;;;1.63;1.52;;;8.80;99.00;;;;;;5093369;28;20200;-80
2023/03/29 11:56:09;;;;;;;1.63;1.52;;;8.80;99.50;;;;;;5093323;28;20216;-79
2023/03/29 11:58:44;;;;;;;4.25;2.58;;;8.90;99.70;;;;;;5092297;28;20312;-79
2023/03/29 12:01:16;;;;;;;1.38;1.20;;;8.90;98.70;;;;;;5093439;28;20285;-83
2023/03/29 12:03:50;;;;;;;2.58;1.30;;;8.90;98.80;;;;;;5093147;28;20214;-83
2023/03/29 12:06:26;;;;;;;5.22;1.90;;;8.80;99.90;;;;;;5093234;28;20287;-79
2023/03/29 12:08:59;;;;;;;1.10;1.08;;;8.80;99.90;;;;;;5092264;28;20208;-79
2023/03/29 12:11:35;;;;;;;7.60;1.90;;;8.80;99.90;;;;;;5093078;28;20236;-79
2023/03/29 12:14:09;;;;;;;1.40;1.30;;;8.70;99.90;;;;;;5092850;28;20204;-79
2023/03/29 12:16:41;;;;;;;3.50;1.70;;;8.60;99.90;;;;;;5092827;28;20211;-79
2023/03/29 12:19:17;;;;;;;1.75;1.65;;;8.40;99.90;;;;;;5092522;28;20224;-79
2023/03/29 12:21:48;;;;;;;1.40;1.17;;;8.40;99.90;;;;;;5092678;28;20228;-79
2023/03/29 12:24:18;;;;;;;1.35;1.35;;;8.30;99.90;;;;;;5092590;28;20263;-79
2023/03/29 12:27:08;;;;;;;1.23;1.20;;;8.30;99.90;;;;;;5092512;28;20204;-79
2023/03/29 12:29:50;;;;;;;2.15;1.40;;;8.30;99.90;;;;;;5090313;28;20228;-79
2023/03/29 12:32:35;;;;;;;2.95;1.40;;;8.50;99.90;;;;;;5092667;28;20232;-83
2023/03/29 12:35:20;;;;;;;1.20;1.20;;;8.60;99.90;;;;;;5092749;28;20275;-83
2023/03/29 12:38:02;;;;;;;1.52;1.42;;;8.50;99.90;;;;;;5091618;28;20227;-82
2023/03/29 12:40:41;;;;;;;1.50;1.40;;;8.60;99.90;;;;;;5093039;28;20234;-83
2023/03/29 12:43:20;;;;;;;4.43;1.95;;;8.70;99.90;;;;;;5092789;28;20205;-83
2023/03/29 12:45:55;;;;;;;1.75;1.58;;;8.80;99.90;;;;;;5092383;28;20257;-83
2023/03/29 12:48:27;;;;;;;1.73;1.63;;;9.00;99.90;;;;;;5097771;28;20204;-83
2023/03/29 12:51:00;;;;;;;1.58;1.48;;;9.00;99.90;;;;;;5092358;28;20225;-83
2023/03/29 12:53:33;;;;;;;2.22;2.00;;;8.90;99.90;;;;;;5092996;28;20238;-83
2023/03/29 12:56:12;;;;;;;5.90;1.52;;;8.70;99.90;;;;;;5092602;28;20279;-79
2023/03/29 12:58:56;;;;;;;2.25;1.48;;;8.60;99.90;;;;;;5091619;28;20220;-79
2023/03/29 13:01:30;;;;;;;2.75;1.77;;;8.70;99.90;;;;;;5092527;28;20232;-79
2023/03/29 13:04:17;;;;;;;1.83;1.65;;;8.60;99.90;;;;;;5092637;28;20234;-79
2023/03/29 13:07:05;;;;;;;1.92;1.73;;;8.70;99.90;;;;;;5092129;28;20235;-79
2023/03/29 13:09:50;;;;;;;1.98;1.52;;;8.80;99.90;;;;;;5092278;28;20208;-79
2023/03/29 13:12:26;;;;;;;1.45;1.42;;;8.80;99.90;;;;;;5093487;28;20216;-79
2023/03/29 13:14:57;;;;;;;1.40;1.30;;;8.70;99.90;;;;;;5096162;28;20212;-79
2023/03/29 13:17:34;;;;;;;3.60;1.98;;;8.60;99.90;;;;;;5095654;28;20249;-79
2023/03/29 13:20:17;;;;;;;1.30;1.20;;;8.70;99.90;;;;;;5096423;28;20208;-79
2023/03/29 13:22:59;;;;;;;2.47;1.38;;;8.60;99.90;;;;;;5096145;28;20204;-79
2023/03/29 13:25:56;;;;;;;1.50;1.40;;;8.70;99.90;;;;;;5096559;28;20208;-79